sensor_id;sensor_type;location;lat;lon;timestamp;pressure;altitude;pressure_sealevel;temperature;humidity
58759;BME280;46777;47.482;19.054;2022-07-22T00:00:38;100507.94;;;29.28;29.08
58759;BME280;46777;47.482;19.054;2022-07-22T00:03:22;100512.72;;;29.24;29.72
58759;BME280;46777;47.482;19.054;2022-07-22T00:06:07;100508.66;;;29.19;29.17
58759;BME280;46777;47.482;19.054;2022-07-22T00:08:52;100515.69;;;29.33;28.29
58759;BME280;46777;47.482;19.054;2022-07-22T00:11:37;100507.91;;;29.39;29.72
58759;BME280;46777;47.482;19.054;2022-07-22T00:14:22;100503.47;;;29.16;30.64
58759;BME280;46777;47.482;19.054;2022-07-22T00:17:06;100502.03;;;29.11;30.57
58759;BME280;46777;47.482;19.054;2022-07-22T00:19:51;100505.44;;;28.91;30.80
58759;BME280;46777;47.482;19.054;2022-07-22T00:22:36;100506.28;;;29.14;30.73
58759;BME280;46777;47.482;19.054;2022-07-22T00:25:21;100510.00;;;29.13;30.65
58759;BME280;46777;47.482;19.054;2022-07-22T00:28:06;100506.81;;;28.97;30.64
58759;BME280;46777;47.482;19.054;2022-07-22T00:30:51;100503.19;;;28.73;30.54
58759;BME280;46777;47.482;19.054;2022-07-22T00:33:36;100513.56;;;28.55;30.71
58759;BME280;46777;47.482;19.054;2022-07-22T00:36:21;100511.31;;;28.73;30.54
58759;BME280;46777;47.482;19.054;2022-07-22T00:39:05;100504.69;;;28.77;30.95
58759;BME280;46777;47.482;19.054;2022-07-22T00:41:50;100515.88;;;28.49;30.73
58759;BME280;46777;47.482;19.054;2022-07-22T00:44:35;100514.97;;;28.61;31.06
58759;BME280;46777;47.482;19.054;2022-07-22T00:47:20;100514.41;;;28.56;30.57
58759;BME280;46777;47.482;19.054;2022-07-22T00:50:05;100512.44;;;28.47;31.16
58759;BME280;46777;47.482;19.054;2022-07-22T00:52:50;100502.75;;;28.55;31.33
58759;BME280;46777;47.482;19.054;2022-07-22T00:55:36;100502.00;;;28.53;32.08
58759;BME280;46777;47.482;19.054;2022-07-22T00:58:21;100510.81;;;28.68;30.65
58759;BME280;46777;47.482;19.054;2022-07-22T01:01:06;100507.50;;;28.40;31.04
58759;BME280;46777;47.482;19.054;2022-07-22T01:03:51;100519.47;;;28.25;30.66
58759;BME280;46777;47.482;19.054;2022-07-22T01:06:36;100526.03;;;28.10;30.80
58759;BME280;46777;47.482;19.054;2022-07-22T01:09:21;100520.66;;;28.45;29.50
58759;BME280;46777;47.482;19.054;2022-07-22T01:12:06;100528.22;;;28.40;31.24
58759;BME280;46777;47.482;19.054;2022-07-22T01:14:50;100524.13;;;27.99;31.04
58759;BME280;46777;47.482;19.054;2022-07-22T01:17:35;100534.41;;;28.18;30.98
58759;BME280;46777;47.482;19.054;2022-07-22T01:20:20;100538.22;;;28.27;29.65
58759;BME280;46777;47.482;19.054;2022-07-22T01:23:05;100529.69;;;28.08;30.79
58759;BME280;46777;47.482;19.054;2022-07-22T01:25:50;100529.47;;;28.12;30.31
58759;BME280;46777;47.482;19.054;2022-07-22T01:28:35;100527.28;;;28.17;31.06
58759;BME280;46777;47.482;19.054;2022-07-22T01:31:20;100527.88;;;27.96;31.80
58759;BME280;46777;47.482;19.054;2022-07-22T01:34:05;100518.47;;;27.78;31.97
58759;BME280;46777;47.482;19.054;2022-07-22T01:36:49;100533.22;;;27.85;32.61
58759;BME280;46777;47.482;19.054;2022-07-22T01:39:35;100523.34;;;27.72;32.39
58759;BME280;46777;47.482;19.054;2022-07-22T01:42:19;100526.16;;;27.71;33.45
58759;BME280;46777;47.482;19.054;2022-07-22T01:45:05;100527.44;;;27.65;33.53
58759;BME280;46777;47.482;19.054;2022-07-22T01:47:50;100529.63;;;27.60;33.61
58759;BME280;46777;47.482;19.054;2022-07-22T01:50:35;100525.88;;;27.87;33.54
58759;BME280;46777;47.482;19.054;2022-07-22T01:53:20;100526.34;;;27.81;33.79
58759;BME280;46777;47.482;19.054;2022-07-22T01:56:05;100533.06;;;27.62;34.39
58759;BME280;46777;47.482;19.054;2022-07-22T01:58:50;100526.00;;;27.35;33.70
58759;BME280;46777;47.482;19.054;2022-07-22T02:01:35;100523.94;;;27.26;34.87
58759;BME280;46777;47.482;19.054;2022-07-22T02:04:20;100531.06;;;27.14;36.46
58759;BME280;46777;47.482;19.054;2022-07-22T02:07:05;100523.00;;;27.27;36.24
58759;BME280;46777;47.482;19.054;2022-07-22T02:09:50;100522.13;;;27.14;37.50
58759;BME280;46777;47.482;19.054;2022-07-22T02:12:35;100516.50;;;27.30;36.46
58759;BME280;46777;47.482;19.054;2022-07-22T02:15:19;100517.59;;;27.01;37.61
58759;BME280;46777;47.482;19.054;2022-07-22T02:18:16;100518.66;;;27.12;35.58
58759;BME280;46777;47.482;19.054;2022-07-22T02:21:01;100541.75;;;26.90;37.82
58759;BME280;46777;47.482;19.054;2022-07-22T02:23:46;100544.97;;;27.21;33.92
58759;BME280;46777;47.482;19.054;2022-07-22T02:26:32;100548.44;;;27.23;33.02
58759;BME280;46777;47.482;19.054;2022-07-22T02:29:17;100558.78;;;27.03;33.86
58759;BME280;46777;47.482;19.054;2022-07-22T02:32:01;100555.50;;;26.85;33.58
58759;BME280;46777;47.482;19.054;2022-07-22T02:34:46;100554.66;;;26.85;34.16
58759;BME280;46777;47.482;19.054;2022-07-22T02:37:31;100553.59;;;27.00;34.08
58759;BME280;46777;47.482;19.054;2022-07-22T02:40:16;100555.97;;;26.92;34.53
58759;BME280;46777;47.482;19.054;2022-07-22T02:43:01;100554.19;;;26.65;34.88
58759;BME280;46777;47.482;19.054;2022-07-22T02:45:47;100558.03;;;26.61;36.12
58759;BME280;46777;47.482;19.054;2022-07-22T02:48:32;100557.81;;;26.64;35.00
58759;BME280;46777;47.482;19.054;2022-07-22T02:51:17;100556.59;;;26.70;35.53
58759;BME280;46777;47.482;19.054;2022-07-22T02:54:03;100553.81;;;26.84;35.13
58759;BME280;46777;47.482;19.054;2022-07-22T02:56:47;100554.84;;;26.69;35.39
58759;BME280;46777;47.482;19.054;2022-07-22T02:59:32;100561.28;;;26.66;35.12
58759;BME280;46777;47.482;19.054;2022-07-22T03:02:17;100561.69;;;26.47;34.44
58759;BME280;46777;47.482;19.054;2022-07-22T03:05:03;100564.47;;;26.59;34.74
58759;BME280;46777;47.482;19.054;2022-07-22T03:07:48;100559.09;;;26.59;35.18
58759;BME280;46777;47.482;19.054;2022-07-22T03:10:33;100550.91;;;26.60;35.32
58759;BME280;46777;47.482;19.054;2022-07-22T03:13:18;100557.81;;;26.64;35.06
58759;BME280;46777;47.482;19.054;2022-07-22T03:16:03;100561.50;;;26.63;35.24
58759;BME280;46777;47.482;19.054;2022-07-22T03:18:48;100564.78;;;26.54;34.81
58759;BME280;46777;47.482;19.054;2022-07-22T03:21:32;100559.72;;;26.49;34.11
58759;BME280;46777;47.482;19.054;2022-07-22T03:24:17;100564.69;;;26.43;34.31
58759;BME280;46777;47.482;19.054;2022-07-22T03:27:02;100560.63;;;26.50;34.60
58759;BME280;46777;47.482;19.054;2022-07-22T03:29:47;100574.78;;;26.39;34.98
58759;BME280;46777;47.482;19.054;2022-07-22T03:32:32;100573.28;;;26.48;34.41
58759;BME280;46777;47.482;19.054;2022-07-22T03:35:17;100584.91;;;26.36;35.08
58759;BME280;46777;47.482;19.054;2022-07-22T03:38:02;100581.63;;;26.30;34.48
58759;BME280;46777;47.482;19.054;2022-07-22T03:40:47;100577.34;;;26.41;34.58
58759;BME280;46777;47.482;19.054;2022-07-22T03:43:32;100581.09;;;26.65;34.32
58759;BME280;46777;47.482;19.054;2022-07-22T03:46:17;100584.28;;;26.45;33.87
58759;BME280;46777;47.482;19.054;2022-07-22T03:49:02;100577.72;;;26.49;33.78
58759;BME280;46777;47.482;19.054;2022-07-22T03:51:47;100580.31;;;26.50;33.73
58759;BME280;46777;47.482;19.054;2022-07-22T03:54:31;100578.25;;;26.54;33.95
58759;BME280;46777;47.482;19.054;2022-07-22T03:57:17;100577.94;;;26.46;33.51
58759;BME280;46777;47.482;19.054;2022-07-22T04:00:04;100584.75;;;26.52;33.76
58759;BME280;46777;47.482;19.054;2022-07-22T04:02:49;100579.88;;;26.57;34.39
58759;BME280;46777;47.482;19.054;2022-07-22T04:05:34;100587.13;;;26.56;34.34
58759;BME280;46777;47.482;19.054;2022-07-22T04:08:19;100575.09;;;26.75;34.05
58759;BME280;46777;47.482;19.054;2022-07-22T04:11:03;100579.56;;;26.61;33.66
58759;BME280;46777;47.482;19.054;2022-07-22T04:13:48;100577.66;;;26.63;33.40
58759;BME280;46777;47.482;19.054;2022-07-22T04:16:33;100574.56;;;26.70;34.59
58759;BME280;46777;47.482;19.054;2022-07-22T04:19:19;100574.38;;;26.73;34.29
58759;BME280;46777;47.482;19.054;2022-07-22T04:22:03;100568.91;;;26.87;34.32
58759;BME280;46777;47.482;19.054;2022-07-22T04:24:48;100571.78;;;27.23;32.82
58759;BME280;46777;47.482;19.054;2022-07-22T04:27:33;100577.97;;;27.25;34.10
58759;BME280;46777;47.482;19.054;2022-07-22T04:30:18;100578.72;;;27.14;33.96
58759;BME280;46777;47.482;19.054;2022-07-22T04:33:03;100577.00;;;27.13;34.81
58759;BME280;46777;47.482;19.054;2022-07-22T04:35:48;100577.41;;;27.32;33.88
58759;BME280;46777;47.482;19.054;2022-07-22T04:38:33;100567.81;;;27.28;34.84
58759;BME280;46777;47.482;19.054;2022-07-22T04:41:18;100558.75;;;27.29;34.59
58759;BME280;46777;47.482;19.054;2022-07-22T04:44:03;100568.69;;;27.42;35.07
58759;BME280;46777;47.482;19.054;2022-07-22T04:46:47;100564.81;;;27.46;35.02
58759;BME280;46777;47.482;19.054;2022-07-22T04:49:32;100566.28;;;27.24;35.97
58759;BME280;46777;47.482;19.054;2022-07-22T04:52:17;100572.16;;;27.44;35.38
58759;BME280;46777;47.482;19.054;2022-07-22T04:55:02;100563.91;;;27.58;35.70
58759;BME280;46777;47.482;19.054;2022-07-22T04:57:47;100565.47;;;27.36;36.00
58759;BME280;46777;47.482;19.054;2022-07-22T05:00:32;100569.31;;;27.32;36.07
58759;BME280;46777;47.482;19.054;2022-07-22T05:03:17;100571.28;;;27.56;35.70
58759;BME280;46777;47.482;19.054;2022-07-22T05:06:02;100578.69;;;27.65;35.38
58759;BME280;46777;47.482;19.054;2022-07-22T05:08:47;100572.50;;;27.76;35.68
58759;BME280;46777;47.482;19.054;2022-07-22T05:11:32;100572.50;;;27.76;35.48
58759;BME280;46777;47.482;19.054;2022-07-22T05:14:17;100574.44;;;27.87;35.14
58759;BME280;46777;47.482;19.054;2022-07-22T05:17:02;100574.22;;;28.03;35.50
58759;BME280;46777;47.482;19.054;2022-07-22T05:19:47;100570.16;;;28.08;36.18
58759;BME280;46777;47.482;19.054;2022-07-22T05:22:32;100577.00;;;28.01;36.24
58759;BME280;46777;47.482;19.054;2022-07-22T05:25:17;100580.34;;;28.29;33.96
58759;BME280;46777;47.482;19.054;2022-07-22T05:28:01;100579.44;;;28.41;33.83
58759;BME280;46777;47.482;19.054;2022-07-22T05:30:46;100583.47;;;28.47;33.09
58759;BME280;46777;47.482;19.054;2022-07-22T05:33:31;100583.44;;;28.60;33.20
58759;BME280;46777;47.482;19.054;2022-07-22T05:36:16;100583.75;;;28.80;31.19
58759;BME280;46777;47.482;19.054;2022-07-22T05:39:00;100586.09;;;28.84;30.38
58759;BME280;46777;47.482;19.054;2022-07-22T05:41:45;100578.03;;;28.95;29.80
58759;BME280;46777;47.482;19.054;2022-07-22T05:44:30;100583.09;;;29.11;29.57
58759;BME280;46777;47.482;19.054;2022-07-22T05:47:15;100585.34;;;29.29;29.57
58759;BME280;46777;47.482;19.054;2022-07-22T05:50:00;100582.28;;;29.45;29.42
58759;BME280;46777;47.482;19.054;2022-07-22T05:52:45;100581.16;;;29.36;29.68
58759;BME280;46777;47.482;19.054;2022-07-22T05:55:30;100588.31;;;29.49;31.19
58759;BME280;46777;47.482;19.054;2022-07-22T05:58:14;100595.69;;;29.58;30.04
58759;BME280;46777;47.482;19.054;2022-07-22T06:00:59;100588.81;;;29.54;30.16
58759;BME280;46777;47.482;19.054;2022-07-22T06:03:44;100588.31;;;29.71;31.35
58759;BME280;46777;47.482;19.054;2022-07-22T06:06:30;100586.94;;;29.88;29.36
58759;BME280;46777;47.482;19.054;2022-07-22T06:09:15;100589.53;;;29.78;29.50
58759;BME280;46777;47.482;19.054;2022-07-22T06:12:00;100591.75;;;29.62;29.50
58759;BME280;46777;47.482;19.054;2022-07-22T06:14:45;100590.38;;;29.68;28.63
58759;BME280;46777;47.482;19.054;2022-07-22T06:17:30;100590.03;;;29.84;30.25
58759;BME280;46777;47.482;19.054;2022-07-22T06:20:15;100599.38;;;30.02;28.81
58759;BME280;46777;47.482;19.054;2022-07-22T06:23:00;100596.16;;;30.08;25.55
58759;BME280;46777;47.482;19.054;2022-07-22T06:25:45;100593.44;;;30.08;24.61
58759;BME280;46777;47.482;19.054;2022-07-22T06:28:30;100593.56;;;30.07;24.56
58759;BME280;46777;47.482;19.054;2022-07-22T06:31:15;100591.50;;;29.99;24.72
58759;BME280;46777;47.482;19.054;2022-07-22T06:34:00;100600.09;;;30.04;24.66
58759;BME280;46777;47.482;19.054;2022-07-22T06:36:49;100593.66;;;30.16;25.14
58759;BME280;46777;47.482;19.054;2022-07-22T06:39:34;100596.09;;;30.20;24.81
58759;BME280;46777;47.482;19.054;2022-07-22T06:42:19;100596.31;;;30.39;25.06
58759;BME280;46777;47.482;19.054;2022-07-22T06:45:04;100594.59;;;30.27;25.69
58759;BME280;46777;47.482;19.054;2022-07-22T06:47:49;100593.28;;;30.21;25.51
58759;BME280;46777;47.482;19.054;2022-07-22T06:50:34;100589.50;;;30.01;24.67
58759;BME280;46777;47.482;19.054;2022-07-22T06:53:20;100589.97;;;30.17;24.65
58759;BME280;46777;47.482;19.054;2022-07-22T06:56:13;100590.25;;;30.79;24.70
58759;BME280;46777;47.482;19.054;2022-07-22T06:58:57;100591.88;;;31.03;24.37
58759;BME280;46777;47.482;19.054;2022-07-22T07:01:42;100587.44;;;30.91;24.17
58759;BME280;46777;47.482;19.054;2022-07-22T07:04:27;100587.53;;;30.79;23.99
58759;BME280;46777;47.482;19.054;2022-07-22T07:07:12;100589.22;;;30.80;24.11
58759;BME280;46777;47.482;19.054;2022-07-22T07:09:57;100588.47;;;30.90;24.77
58759;BME280;46777;47.482;19.054;2022-07-22T07:12:42;100586.06;;;30.75;24.75
58759;BME280;46777;47.482;19.054;2022-07-22T07:15:27;100591.47;;;31.08;24.86
58759;BME280;46777;47.482;19.054;2022-07-22T07:18:12;100584.16;;;31.08;24.94
58759;BME280;46777;47.482;19.054;2022-07-22T07:20:56;100585.81;;;31.20;24.02
58759;BME280;46777;47.482;19.054;2022-07-22T07:23:41;100590.16;;;30.91;24.37
58759;BME280;46777;47.482;19.054;2022-07-22T07:26:26;100589.72;;;31.07;23.83
58759;BME280;46777;47.482;19.054;2022-07-22T07:29:11;100585.91;;;31.09;24.13
58759;BME280;46777;47.482;19.054;2022-07-22T07:31:56;100578.88;;;31.59;24.90
58759;BME280;46777;47.482;19.054;2022-07-22T07:34:40;100577.94;;;31.48;23.79
58759;BME280;46777;47.482;19.054;2022-07-22T07:37:25;100572.19;;;32.33;23.06
58759;BME280;46777;47.482;19.054;2022-07-22T07:40:10;100568.78;;;32.80;22.86
58759;BME280;46777;47.482;19.054;2022-07-22T07:42:55;100578.22;;;32.26;22.67
58759;BME280;46777;47.482;19.054;2022-07-22T07:45:40;100571.84;;;31.97;23.20
58759;BME280;46777;47.482;19.054;2022-07-22T07:48:25;100577.34;;;32.36;23.13
58759;BME280;46777;47.482;19.054;2022-07-22T07:51:10;100572.94;;;32.54;22.81
58759;BME280;46777;47.482;19.054;2022-07-22T07:53:54;100565.81;;;33.58;21.89
58759;BME280;46777;47.482;19.054;2022-07-22T07:56:39;100583.94;;;33.77;21.82
58759;BME280;46777;47.482;19.054;2022-07-22T07:59:24;100576.97;;;33.17;20.78
58759;BME280;46777;47.482;19.054;2022-07-22T08:02:09;100569.41;;;33.58;19.28
58759;BME280;46777;47.482;19.054;2022-07-22T08:04:54;100573.59;;;33.53;18.81
58759;BME280;46777;47.482;19.054;2022-07-22T08:07:39;100570.00;;;34.08;18.53
58759;BME280;46777;47.482;19.054;2022-07-22T08:10:24;100567.50;;;33.96;19.36
58759;BME280;46777;47.482;19.054;2022-07-22T08:13:09;100565.00;;;33.85;19.17
58759;BME280;46777;47.482;19.054;2022-07-22T08:15:54;100557.81;;;33.56;19.41
58759;BME280;46777;47.482;19.054;2022-07-22T08:18:39;100563.34;;;33.92;19.37
58759;BME280;46777;47.482;19.054;2022-07-22T08:21:25;100557.03;;;33.64;20.04
58759;BME280;46777;47.482;19.054;2022-07-22T08:24:10;100559.00;;;33.44;19.94
58759;BME280;46777;47.482;19.054;2022-07-22T08:26:54;100569.09;;;33.89;19.30
58759;BME280;46777;47.482;19.054;2022-07-22T08:29:39;100564.78;;;33.69;19.54
58759;BME280;46777;47.482;19.054;2022-07-22T08:32:24;100562.28;;;34.03;18.86
58759;BME280;46777;47.482;19.054;2022-07-22T08:35:10;100563.88;;;34.60;19.32
58759;BME280;46777;47.482;19.054;2022-07-22T08:37:54;100558.41;;;34.60;18.27
58759;BME280;46777;47.482;19.054;2022-07-22T08:40:39;100558.31;;;34.69;18.50
58759;BME280;46777;47.482;19.054;2022-07-22T08:43:24;100559.06;;;34.35;19.43
58759;BME280;46777;47.482;19.054;2022-07-22T08:46:09;100564.59;;;34.44;18.76
58759;BME280;46777;47.482;19.054;2022-07-22T08:48:54;100552.97;;;34.60;19.18
58759;BME280;46777;47.482;19.054;2022-07-22T08:51:39;100560.59;;;34.38;18.80
58759;BME280;46777;47.482;19.054;2022-07-22T08:54:24;100553.81;;;35.04;18.75
58759;BME280;46777;47.482;19.054;2022-07-22T08:57:09;100553.41;;;34.73;18.92
58759;BME280;46777;47.482;19.054;2022-07-22T08:59:56;100559.00;;;34.90;18.88
58759;BME280;46777;47.482;19.054;2022-07-22T09:02:42;100548.91;;;34.82;19.14
58759;BME280;46777;47.482;19.054;2022-07-22T09:05:33;100552.38;;;34.92;18.89
58759;BME280;46777;47.482;19.054;2022-07-22T09:08:19;100542.75;;;34.80;18.59
58759;BME280;46777;47.482;19.054;2022-07-22T09:11:17;100550.75;;;35.68;17.93
58759;BME280;46777;47.482;19.054;2022-07-22T09:14:02;100544.72;;;35.99;18.06
58759;BME280;46777;47.482;19.054;2022-07-22T09:16:48;100543.34;;;36.12;18.30
58759;BME280;46777;47.482;19.054;2022-07-22T09:19:34;100539.31;;;36.32;17.51
58759;BME280;46777;47.482;19.054;2022-07-22T09:22:38;100523.16;;;35.88;17.97
58759;BME280;46777;47.482;19.054;2022-07-22T09:25:37;100537.03;;;35.26;17.99
58759;BME280;46777;47.482;19.054;2022-07-22T09:28:22;100529.22;;;35.73;17.93
58759;BME280;46777;47.482;19.054;2022-07-22T09:31:23;100530.06;;;36.17;17.50
58759;BME280;46777;47.482;19.054;2022-07-22T09:34:08;100529.25;;;36.82;17.05
58759;BME280;46777;47.482;19.054;2022-07-22T09:36:57;100537.59;;;36.48;17.21
58759;BME280;46777;47.482;19.054;2022-07-22T09:39:43;100526.31;;;36.67;17.37
58759;BME280;46777;47.482;19.054;2022-07-22T09:42:43;100530.41;;;36.38;17.05
58759;BME280;46777;47.482;19.054;2022-07-22T09:45:30;100521.75;;;37.24;17.13
58759;BME280;46777;47.482;19.054;2022-07-22T09:48:17;100523.28;;;37.35;17.01
58759;BME280;46777;47.482;19.054;2022-07-22T09:51:02;100522.47;;;37.26;16.51
58759;BME280;46777;47.482;19.054;2022-07-22T09:53:48;100515.81;;;37.12;17.09
58759;BME280;46777;47.482;19.054;2022-07-22T09:56:33;100522.53;;;38.12;16.50
58759;BME280;46777;47.482;19.054;2022-07-22T09:59:19;100504.41;;;37.79;17.18
58759;BME280;46777;47.482;19.054;2022-07-22T10:02:04;100505.25;;;38.73;16.12
58759;BME280;46777;47.482;19.054;2022-07-22T10:04:50;100501.38;;;38.67;15.80
58759;BME280;46777;47.482;19.054;2022-07-22T10:07:36;100509.59;;;38.97;15.71
58759;BME280;46777;47.482;19.054;2022-07-22T10:10:25;100507.44;;;38.77;16.53
58759;BME280;46777;47.482;19.054;2022-07-22T10:13:10;100515.78;;;38.61;16.81
58759;BME280;46777;47.482;19.054;2022-07-22T10:15:55;100509.44;;;38.45;15.73
58759;BME280;46777;47.482;19.054;2022-07-22T10:18:45;100505.53;;;38.93;15.74
58759;BME280;46777;47.482;19.054;2022-07-22T10:21:32;100493.59;;;40.18;15.52
58759;BME280;46777;47.482;19.054;2022-07-22T10:24:17;100486.34;;;39.74;15.57
58759;BME280;46777;47.482;19.054;2022-07-22T10:27:03;100486.53;;;40.09;15.18
58759;BME280;46777;47.482;19.054;2022-07-22T10:29:48;100473.72;;;41.01;15.01
58759;BME280;46777;47.482;19.054;2022-07-22T10:32:33;100486.44;;;41.09;14.91
58759;BME280;46777;47.482;19.054;2022-07-22T10:38:05;100483.63;;;42.46;13.55
58759;BME280;46777;47.482;19.054;2022-07-22T10:41:00;100477.38;;;41.15;15.14
58759;BME280;46777;47.482;19.054;2022-07-22T10:43:46;100488.75;;;42.22;14.45
58759;BME280;46777;47.482;19.054;2022-07-22T10:46:52;100466.06;;;44.97;12.05
58759;BME280;46777;47.482;19.054;2022-07-22T10:49:38;100464.94;;;41.88;14.72
58759;BME280;46777;47.482;19.054;2022-07-22T10:52:32;100463.97;;;41.47;14.85
58759;BME280;46777;47.482;19.054;2022-07-22T10:55:19;100465.47;;;41.56;15.58
58759;BME280;46777;47.482;19.054;2022-07-22T11:01:19;100456.84;;;40.83;15.90
58759;BME280;46777;47.482;19.054;2022-07-22T11:04:30;100463.69;;;42.04;15.54
58759;BME280;46777;47.482;19.054;2022-07-22T11:07:17;100457.69;;;42.87;14.30
58759;BME280;46777;47.482;19.054;2022-07-22T11:10:16;100441.25;;;45.39;12.60
58759;BME280;46777;47.482;19.054;2022-07-22T11:13:01;100439.47;;;48.43;10.50
58759;BME280;46777;47.482;19.054;2022-07-22T11:15:46;100427.97;;;48.96;10.07
58759;BME280;46777;47.482;19.054;2022-07-22T11:18:50;100436.91;;;49.47;9.45
58759;BME280;46777;47.482;19.054;2022-07-22T11:21:35;100435.53;;;49.50;9.76
58759;BME280;46777;47.482;19.054;2022-07-22T11:24:20;100424.19;;;49.07;10.16
58759;BME280;46777;47.482;19.054;2022-07-22T11:27:12;100417.44;;;51.23;8.88
58759;BME280;46777;47.482;19.054;2022-07-22T11:29:58;100427.91;;;50.85;8.90
58759;BME280;46777;47.482;19.054;2022-07-22T11:32:43;100420.66;;;50.84;8.82
58759;BME280;46777;47.482;19.054;2022-07-22T11:35:28;100421.66;;;52.49;8.25
58759;BME280;46777;47.482;19.054;2022-07-22T11:38:13;100414.69;;;50.22;9.13
58759;BME280;46777;47.482;19.054;2022-07-22T11:40:58;100418.34;;;50.65;9.23
58759;BME280;46777;47.482;19.054;2022-07-22T11:43:48;100407.16;;;53.82;7.53
58759;BME280;46777;47.482;19.054;2022-07-22T11:46:41;100402.81;;;52.65;8.78
58759;BME280;46777;47.482;19.054;2022-07-22T11:49:28;100398.47;;;53.43;8.07
58759;BME280;46777;47.482;19.054;2022-07-22T11:52:14;100399.63;;;53.42;8.03
58759;BME280;46777;47.482;19.054;2022-07-22T11:54:59;100388.88;;;53.55;8.15
58759;BME280;46777;47.482;19.054;2022-07-22T11:57:47;100383.34;;;52.19;8.89
58759;BME280;46777;47.482;19.054;2022-07-22T12:00:33;100380.66;;;55.28;7.60
58759;BME280;46777;47.482;19.054;2022-07-22T12:03:17;100382.00;;;53.71;8.10
58759;BME280;46777;47.482;19.054;2022-07-22T12:06:05;100373.22;;;53.49;8.07
58759;BME280;46777;47.482;19.054;2022-07-22T12:08:53;100372.94;;;53.05;8.41
58759;BME280;46777;47.482;19.054;2022-07-22T12:11:42;100382.47;;;54.61;7.35
58759;BME280;46777;47.482;19.054;2022-07-22T12:14:29;100358.78;;;51.69;9.15
58759;BME280;46777;47.482;19.054;2022-07-22T12:17:14;100364.75;;;52.59;8.96
58759;BME280;46777;47.482;19.054;2022-07-22T12:20:09;100360.56;;;55.02;7.68
58759;BME280;46777;47.482;19.054;2022-07-22T12:22:55;100355.03;;;53.01;8.68
58759;BME280;46777;47.482;19.054;2022-07-22T12:25:51;100345.38;;;53.57;8.49
58759;BME280;46777;47.482;19.054;2022-07-22T12:28:35;100349.09;;;54.55;8.39
58759;BME280;46777;47.482;19.054;2022-07-22T12:31:20;100340.50;;;56.35;7.01
58759;BME280;46777;47.482;19.054;2022-07-22T12:34:05;100347.94;;;54.12;8.20
58759;BME280;46777;47.482;19.054;2022-07-22T12:36:50;100337.59;;;54.08;8.25
58759;BME280;46777;47.482;19.054;2022-07-22T12:39:35;100337.06;;;53.76;8.54
58759;BME280;46777;47.482;19.054;2022-07-22T12:42:20;100336.72;;;54.56;7.46
58759;BME280;46777;47.482;19.054;2022-07-22T12:45:10;100334.13;;;54.83;7.51
58759;BME280;46777;47.482;19.054;2022-07-22T12:50:56;100334.25;;;54.30;8.21
58759;BME280;46777;47.482;19.054;2022-07-22T12:53:41;100337.03;;;55.49;7.90
58759;BME280;46777;47.482;19.054;2022-07-22T12:56:26;100329.91;;;54.62;7.92
58759;BME280;46777;47.482;19.054;2022-07-22T12:59:11;100316.47;;;55.68;7.07
58759;BME280;46777;47.482;19.054;2022-07-22T13:01:55;100321.56;;;55.14;7.52
58759;BME280;46777;47.482;19.054;2022-07-22T13:04:40;100326.75;;;53.32;7.59
58759;BME280;46777;47.482;19.054;2022-07-22T13:07:25;100329.78;;;54.72;7.03
58759;BME280;46777;47.482;19.054;2022-07-22T13:10:11;100315.72;;;55.10;6.84
58759;BME280;46777;47.482;19.054;2022-07-22T13:12:56;100309.50;;;51.22;8.65
58759;BME280;46777;47.482;19.054;2022-07-22T13:15:41;100300.25;;;46.32;11.80
58759;BME280;46777;47.482;19.054;2022-07-22T13:18:26;100308.78;;;45.48;13.22
58759;BME280;46777;47.482;19.054;2022-07-22T13:21:10;100319.13;;;43.74;14.80
58759;BME280;46777;47.482;19.054;2022-07-22T13:23:55;100303.22;;;43.05;15.28
58759;BME280;46777;47.482;19.054;2022-07-22T13:26:40;100305.19;;;44.13;14.39
58759;BME280;46777;47.482;19.054;2022-07-22T13:29:25;100310.09;;;43.60;14.82
58759;BME280;46777;47.482;19.054;2022-07-22T13:32:10;100302.72;;;43.54;14.82
58759;BME280;46777;47.482;19.054;2022-07-22T13:34:54;100305.34;;;43.42;15.42
58759;BME280;46777;47.482;19.054;2022-07-22T13:37:39;100292.66;;;42.44;16.18
58759;BME280;46777;47.482;19.054;2022-07-22T13:40:25;100291.34;;;42.53;16.29
58759;BME280;46777;47.482;19.054;2022-07-22T13:43:09;100299.75;;;42.85;15.22
58759;BME280;46777;47.482;19.054;2022-07-22T13:45:54;100278.09;;;42.82;15.36
58759;BME280;46777;47.482;19.054;2022-07-22T13:48:40;100288.41;;;42.93;15.73
58759;BME280;46777;47.482;19.054;2022-07-22T13:51:25;100282.53;;;42.83;15.76
58759;BME280;46777;47.482;19.054;2022-07-22T13:54:09;100281.84;;;42.94;15.63
58759;BME280;46777;47.482;19.054;2022-07-22T13:56:54;100274.69;;;42.80;15.81
58759;BME280;46777;47.482;19.054;2022-07-22T13:59:39;100276.19;;;43.14;16.48
58759;BME280;46777;47.482;19.054;2022-07-22T14:02:24;100271.31;;;42.78;15.85
58759;BME280;46777;47.482;19.054;2022-07-22T14:05:09;100274.53;;;41.69;16.99
58759;BME280;46777;47.482;19.054;2022-07-22T14:07:54;100267.47;;;42.27;16.45
58759;BME280;46777;47.482;19.054;2022-07-22T14:10:39;100273.25;;;41.85;17.10
58759;BME280;46777;47.482;19.054;2022-07-22T14:13:24;100261.41;;;41.91;16.59
58759;BME280;46777;47.482;19.054;2022-07-22T14:16:08;100259.28;;;41.87;16.07
58759;BME280;46777;47.482;19.054;2022-07-22T14:19:14;100264.31;;;41.03;16.25
58759;BME280;46777;47.482;19.054;2022-07-22T14:21:59;100270.31;;;41.80;16.46
58759;BME280;46777;47.482;19.054;2022-07-22T14:24:44;100258.03;;;41.76;16.31